Etusivu
METAR-TAF:

METAR-TAF

Lentoasemat :

Charlevoix Municipal Airport

Charlevoix, Michigan, Yhdysvallat

Leveyspiiri: 45-18-17N, Pituuspiiri: 085-16-29W, korkeus merenpinnasta: 204 m

Tämänhetkinen sää

Tämä raportti tehtiin 20 minuuttia sitten, kello 08.55 UTC
Tuuli 4 kn idästä/kaakosta
Lämpötila -1°C
Kosteus 93%
Ilmanpaine 1007 hPa
Näkyvyys: 1.6 km
Pilvistä 500 ft:n korkeudessa
lumisadetta

METAR: KCVX 180855Z AUTO 12004KT 1SM SN OVC005 M01/M02 A2975 RMK AO2 T10151025

Aika: 04:15 (09:15 UTC)


TAF: puuttuu

Säähavainnot ja -ennusteet yli 4000 lentoasemalta (METAR- ja TAF-raportit).

Käytössä olevat sääasemat on merkitty karttaan keltaisilla ja punaisilla pisteillä.

Aseta hiiri pisteen päälle nähdäksesi sääaseman nimen.

Klikkaa sitten nähdäksesi säähavainnot ja -ennusteet.

Kartan vaihtaminen: klikkaa mustalla rastilla varustettuja vihreitä pisteitä, niin voit zoomata sisään; viivalla varustettua vihreää pistettä, niin voit zoomata ulos tai vihreitä nuolia, niin pääset viereisille kartoille.


METAR-TAF: